createdAt,value
2018-06-23T00:00:14.850Z,14.41
2018-06-23T00:01:14.781Z,14.41
2018-06-23T00:02:14.751Z,14.41
2018-06-23T00:03:14.732Z,14.39
2018-06-23T00:04:14.696Z,14.28
2018-06-23T00:05:14.718Z,14.38
2018-06-23T00:06:14.653Z,14.46
2018-06-23T00:07:14.614Z,14.39
2018-06-23T00:08:14.588Z,14.34
2018-06-23T00:09:14.568Z,14.31
2018-06-23T00:10:14.580Z,14.39
2018-06-23T00:11:14.520Z,14.33
2018-06-23T00:12:14.486Z,14.31
2018-06-23T00:13:14.452Z,14.34
2018-06-23T00:14:14.424Z,14.33
2018-06-23T00:15:14.499Z,14.28
2018-06-23T00:16:14.428Z,14.30
2018-06-23T00:17:14.341Z,14.23
2018-06-23T00:18:14.322Z,14.27
2018-06-23T00:19:14.303Z,14.23
2018-06-23T00:20:14.261Z,14.24
2018-06-23T00:21:14.278Z,14.15
2018-06-23T00:22:14.212Z,14.16
2018-06-23T00:23:14.186Z,14.12
2018-06-23T00:24:14.198Z,14.01
2018-06-23T00:25:14.170Z,14.03
2018-06-23T00:26:14.103Z,13.86
2018-06-23T00:27:14.069Z,13.95
2018-06-23T00:28:14.041Z,13.90
2018-06-23T00:29:14.015Z,13.83
2018-06-23T00:30:14.026Z,13.79
2018-06-23T00:31:14.015Z,13.81
2018-06-23T00:32:13.932Z,13.75
2018-06-23T00:33:13.904Z,13.72
2018-06-23T00:34:13.889Z,13.70
2018-06-23T00:35:13.854Z,13.76
2018-06-23T00:36:13.876Z,13.68
2018-06-23T00:37:14.720Z,13.72
2018-06-23T00:38:13.764Z,13.69
2018-06-23T00:39:13.743Z,13.70
2018-06-23T00:40:13.722Z,13.66
2018-06-23T00:41:13.730Z,13.69
2018-06-23T00:42:13.665Z,13.75
2018-06-23T00:43:13.625Z,13.72
2018-06-23T00:44:13.599Z,13.70
2018-06-23T00:45:13.578Z,13.81
2018-06-23T00:46:13.591Z,13.87
2018-06-23T00:47:13.572Z,13.79
2018-06-23T00:48:13.488Z,13.78
2018-06-23T00:49:13.461Z,13.75
2018-06-23T00:50:13.433Z,13.81
2018-06-23T00:51:13.469Z,13.83
2018-06-23T00:52:13.380Z,13.84
2018-06-23T00:53:13.357Z,13.87
2018-06-23T00:54:13.324Z,13.84
2018-06-23T00:55:13.293Z,13.78
2018-06-23T00:56:13.308Z,13.86
2018-06-23T00:57:13.241Z,13.88
2018-06-23T00:58:13.260Z,13.87
2018-06-23T00:59:13.183Z,13.78
2018-06-23T01:00:13.155Z,13.88
2018-06-23T01:01:13.133Z,13.87
2018-06-23T01:02:13.145Z,13.83
2018-06-23T01:03:13.070Z,13.86
2018-06-23T01:04:13.102Z,13.83
2018-06-23T01:05:13.015Z,13.84
2018-06-23T01:06:12.990Z,13.88
2018-06-23T01:07:12.965Z,13.84
2018-06-23T01:08:12.940Z,13.91
2018-06-23T01:09:12.953Z,13.86
2018-06-23T01:10:12.876Z,13.87
2018-06-23T01:11:12.870Z,13.84
2018-06-23T01:12:12.823Z,14.01
2018-06-23T01:13:12.850Z,13.93
2018-06-23T01:14:12.765Z,13.93
2018-06-23T01:15:12.744Z,13.91
2018-06-23T01:16:12.710Z,13.86
2018-06-23T01:17:13.219Z,13.99
2018-06-23T01:18:12.704Z,13.93
2018-06-23T01:19:12.630Z,13.93
2018-06-23T01:20:12.600Z,13.93
2018-06-23T01:21:12.618Z,14.01
2018-06-23T01:22:12.551Z,13.93
2018-06-23T01:23:12.521Z,13.87
2018-06-23T01:24:12.490Z,14.01
2018-06-23T01:25:12.507Z,13.95
2018-06-23T01:26:12.437Z,13.99
2018-06-23T01:27:12.449Z,13.93
2018-06-23T01:28:12.387Z,13.88
2018-06-23T01:29:12.352Z,13.87
2018-06-23T01:30:12.496Z,13.84
2018-06-23T01:31:12.340Z,13.91
2018-06-23T01:32:12.271Z,13.91
2018-06-23T01:33:12.287Z,13.88
2018-06-23T01:34:12.211Z,13.87
2018-06-23T01:35:12.192Z,13.84
2018-06-23T01:36:12.158Z,13.84
2018-06-23T01:37:12.131Z,13.79
2018-06-23T01:38:12.146Z,13.87
2018-06-23T01:39:12.079Z,13.79
2018-06-23T01:40:12.047Z,13.75
2018-06-23T01:41:12.021Z,13.73
2018-06-23T01:42:11.992Z,13.69
2018-06-23T01:43:12.006Z,13.72
2018-06-23T01:44:11.941Z,13.68
2018-06-23T01:45:11.908Z,13.72
2018-06-23T01:46:11.885Z,13.69
2018-06-23T01:47:11.911Z,13.70
2018-06-23T01:48:11.884Z,13.68
2018-06-23T01:49:11.800Z,13.72
2018-06-23T01:50:11.774Z,13.68
2018-06-23T01:51:11.741Z,13.62
2018-06-23T01:52:11.712Z,13.70
2018-06-23T01:53:11.741Z,13.62
2018-06-23T01:54:11.657Z,13.60
2018-06-23T01:55:11.630Z,13.63
2018-06-23T01:56:11.621Z,13.62
2018-06-23T01:57:11.577Z,13.51
2018-06-23T01:58:11.598Z,13.55
2018-06-23T01:59:11.521Z,13.57
2018-06-23T02:00:11.490Z,13.58
2018-06-23T02:01:12.231Z,13.50
2018-06-23T02:02:11.441Z,13.54
2018-06-23T02:03:11.458Z,13.54
2018-06-23T02:04:11.378Z,13.57
2018-06-23T02:05:11.397Z,13.57
2018-06-23T02:06:11.323Z,13.54
2018-06-23T02:07:11.295Z,13.54
2018-06-23T02:08:11.319Z,13.50
2018-06-23T02:09:11.292Z,13.54
2018-06-23T02:10:11.215Z,13.54
2018-06-23T02:11:11.220Z,13.58
2018-06-23T02:12:11.160Z,13.55
2018-06-23T02:13:11.128Z,13.54
2018-06-23T02:14:11.171Z,13.57
2018-06-23T02:15:11.073Z,13.42
2018-06-23T02:16:11.047Z,13.51
2018-06-23T02:17:11.022Z,13.51
2018-06-23T02:18:10.990Z,13.45
2018-06-23T02:19:11.005Z,13.47
2018-06-23T02:20:10.989Z,13.44
2018-06-23T02:21:10.915Z,13.45
2018-06-23T02:22:10.877Z,13.37
2018-06-23T02:23:10.860Z,13.35
2018-06-23T02:24:10.828Z,13.39
2018-06-23T02:25:10.840Z,13.39
2018-06-23T02:26:10.810Z,13.42
2018-06-23T02:27:10.750Z,13.27
2018-06-23T02:28:10.712Z,13.35
2018-06-23T02:29:10.685Z,13.27
2018-06-23T02:30:10.664Z,13.27
2018-06-23T02:31:10.672Z,13.25
2018-06-23T02:32:10.599Z,13.19
2018-06-23T02:33:10.573Z,13.11
2018-06-23T02:34:10.550Z,13.14
2018-06-23T02:35:10.516Z,13.07
2018-06-23T02:36:10.532Z,13.09
2018-06-23T02:37:10.469Z,13.10
2018-06-23T02:38:10.434Z,13.11
2018-06-23T02:39:10.409Z,13.10
2018-06-23T02:40:10.386Z,13.10
2018-06-23T02:41:10.394Z,13.07
2018-06-23T02:42:10.324Z,13.14
2018-06-23T02:43:10.296Z,13.09
2018-06-23T02:44:10.264Z,13.19
2018-06-23T02:45:10.288Z,13.09
2018-06-23T02:46:10.222Z,13.16
2018-06-23T02:47:10.232Z,13.09
2018-06-23T02:48:10.155Z,13.07
2018-06-23T02:49:10.123Z,13.07
2018-06-23T02:50:10.095Z,13.11
2018-06-23T02:51:10.112Z,13.10
2018-06-23T02:52:10.287Z,13.11
2018-06-23T02:53:10.012Z,13.13
2018-06-23T02:54:09.983Z,13.16
2018-06-23T02:55:09.956Z,13.16
2018-06-23T02:56:09.928Z,13.17
2018-06-23T02:57:09.942Z,13.16
2018-06-23T02:58:09.917Z,13.17
2018-06-23T02:59:09.842Z,13.19
2018-06-23T03:00:09.873Z,13.25
2018-06-23T03:01:09.787Z,13.27
2018-06-23T03:02:09.756Z,13.31
2018-06-23T03:03:09.729Z,13.28
2018-06-23T03:04:09.704Z,13.29
2018-06-23T03:05:09.724Z,13.24
2018-06-23T03:06:09.656Z,13.27
2018-06-23T03:07:09.618Z,13.21
2018-06-23T03:08:09.598Z,13.28
2018-06-23T03:09:09.605Z,13.19
2018-06-23T03:10:09.537Z,13.20
2018-06-23T03:11:09.509Z,13.28
2018-06-23T03:12:09.479Z,13.16
2018-06-23T03:13:09.496Z,13.20
2018-06-23T03:14:09.423Z,13.24
2018-06-23T03:15:09.397Z,13.20
2018-06-23T03:16:09.425Z,13.24
2018-06-23T03:17:09.355Z,13.14
2018-06-23T03:18:09.323Z,13.24
2018-06-23T03:19:09.283Z,13.20
2018-06-23T03:20:09.255Z,13.16
2018-06-23T03:21:09.278Z,13.13
2018-06-23T03:22:09.197Z,13.13
2018-06-23T03:23:09.180Z,13.14
2018-06-23T03:24:09.203Z,13.11
2018-06-23T03:25:09.115Z,13.14
2018-06-23T03:26:09.110Z,13.09
2018-06-23T03:27:09.057Z,13.06
2018-06-23T03:28:09.035Z,13.07
2018-06-23T03:29:09.040Z,13.11
2018-06-23T03:30:08.973Z,13.19
2018-06-23T03:31:08.964Z,13.13
2018-06-23T03:32:08.975Z,13.13
2018-06-23T03:33:08.890Z,13.11
2018-06-23T03:34:08.862Z,13.14
2018-06-23T03:35:08.834Z,13.11
2018-06-23T03:36:08.822Z,13.17
2018-06-23T03:37:08.838Z,13.19
2018-06-23T03:38:08.759Z,13.19
2018-06-23T03:39:08.723Z,13.16
2018-06-23T03:40:08.749Z,13.17
2018-06-23T03:41:08.671Z,13.21
2018-06-23T03:42:08.657Z,13.19
2018-06-23T03:43:08.675Z,13.25
2018-06-23T03:44:08.587Z,13.25
2018-06-23T03:45:08.554Z,13.28
2018-06-23T03:46:08.538Z,13.28
2018-06-23T03:47:08.544Z,13.27
2018-06-23T03:48:08.483Z,13.14
2018-06-23T03:49:08.451Z,13.28
2018-06-23T03:50:08.415Z,13.21
2018-06-23T03:51:08.387Z,13.13
2018-06-23T03:52:08.429Z,13.14
2018-06-23T03:53:08.334Z,13.17
2018-06-23T03:54:08.362Z,13.14
2018-06-23T03:55:08.289Z,13.14
2018-06-23T03:56:08.251Z,13.11
2018-06-23T03:57:08.219Z,13.13
2018-06-23T03:58:08.245Z,13.28
2018-06-23T03:59:08.220Z,13.21
2018-06-23T04:00:08.180Z,13.20
2018-06-23T04:01:08.121Z,13.27
2018-06-23T04:02:08.086Z,13.25
2018-06-23T04:03:08.101Z,13.37
2018-06-23T04:04:08.045Z,13.32
2018-06-23T04:05:08.008Z,13.45
2018-06-23T04:06:07.969Z,13.48
2018-06-23T04:07:07.949Z,13.45
2018-06-23T04:08:08.353Z,13.45
2018-06-23T04:09:07.940Z,13.47
2018-06-23T04:10:07.902Z,13.55
2018-06-23T04:11:07.878Z,13.70
2018-06-23T04:12:07.803Z,13.84
2018-06-23T04:13:07.779Z,13.83
2018-06-23T04:14:07.750Z,13.68
2018-06-23T04:15:07.770Z,13.51
2018-06-23T04:16:07.692Z,13.62
2018-06-23T04:17:07.669Z,13.63
2018-06-23T04:18:07.641Z,13.69
2018-06-23T04:19:07.652Z,13.70
2018-06-23T04:20:07.587Z,13.70
2018-06-23T04:21:07.576Z,13.81
2018-06-23T04:22:07.582Z,13.88
2018-06-23T04:23:07.504Z,13.95
2018-06-23T04:24:07.472Z,14.15
2018-06-23T04:25:07.449Z,14.16
2018-06-23T04:26:07.474Z,14.16
2018-06-23T04:27:07.393Z,14.24
2018-06-23T04:28:07.367Z,14.31
2018-06-23T04:29:07.346Z,14.21
2018-06-23T04:30:07.313Z,14.06
2018-06-23T04:31:07.322Z,13.91
2018-06-23T04:32:07.809Z,13.90
2018-06-23T04:33:07.230Z,13.86
2018-06-23T04:34:07.202Z,13.78
2018-06-23T04:35:07.180Z,13.70
2018-06-23T04:36:07.146Z,13.69
2018-06-23T04:37:07.195Z,13.73
2018-06-23T04:38:07.088Z,13.73
2018-06-23T04:39:07.452Z,13.79
2018-06-23T04:40:07.038Z,13.84
2018-06-23T04:41:07.018Z,13.90
2018-06-23T04:42:07.075Z,13.95
2018-06-23T04:43:06.956Z,13.88
2018-06-23T04:44:07.754Z,13.91
2018-06-23T04:45:06.902Z,13.93
2018-06-23T04:46:06.875Z,13.88
2018-06-23T04:47:06.911Z,13.87
2018-06-23T04:48:06.822Z,13.99
2018-06-23T04:49:06.802Z,13.95
2018-06-23T04:50:06.770Z,13.93
2018-06-23T04:51:06.745Z,13.91
2018-06-23T04:52:06.774Z,13.83
2018-06-23T04:53:06.689Z,13.99
2018-06-23T04:54:06.660Z,13.86
2018-06-23T04:55:06.635Z,13.91
2018-06-23T04:56:06.608Z,13.86
2018-06-23T04:57:06.622Z,13.91
2018-06-23T04:58:06.550Z,13.83
2018-06-23T04:59:06.578Z,13.86
2018-06-23T05:00:06.499Z,13.87
2018-06-23T05:01:06.475Z,13.90
2018-06-23T05:02:06.477Z,13.97
2018-06-23T05:03:06.417Z,13.99
2018-06-23T05:04:06.471Z,13.91
2018-06-23T05:05:06.369Z,13.97
2018-06-23T05:06:06.340Z,13.87
2018-06-23T05:07:06.308Z,13.87
2018-06-23T05:08:06.290Z,13.86
2018-06-23T05:09:06.312Z,14.01
2018-06-23T05:10:06.226Z,13.86
2018-06-23T05:11:06.205Z,13.93
2018-06-23T05:12:06.174Z,14.03
2018-06-23T05:13:06.151Z,14.01
2018-06-23T05:14:06.172Z,14.02
2018-06-23T05:15:06.096Z,13.95
2018-06-23T05:16:06.070Z,13.99
2018-06-23T05:17:06.720Z,14.19
2018-06-23T05:18:06.059Z,14.16
2018-06-23T05:19:05.995Z,14.19
2018-06-23T05:20:06.023Z,14.15
2018-06-23T05:21:05.930Z,14.15
2018-06-23T05:22:05.946Z,14.24
2018-06-23T05:23:05.883Z,14.16
2018-06-23T05:24:05.857Z,14.26
2018-06-23T05:25:05.886Z,14.39
2018-06-23T05:26:05.822Z,14.27
2018-06-23T05:27:05.771Z,14.26
2018-06-23T05:28:05.746Z,14.19
2018-06-23T05:29:05.717Z,14.28
2018-06-23T05:30:05.751Z,14.34
2018-06-23T05:31:05.677Z,14.30
2018-06-23T05:32:05.638Z,14.27
2018-06-23T05:33:05.613Z,14.19
2018-06-23T05:34:05.599Z,14.20
2018-06-23T05:35:05.638Z,14.21
2018-06-23T05:36:05.538Z,14.16
2018-06-23T05:37:05.511Z,14.21
2018-06-23T05:38:05.477Z,14.31
2018-06-23T05:39:05.450Z,14.48
2018-06-23T05:40:05.485Z,14.53
2018-06-23T05:41:05.396Z,14.74
2018-06-23T05:42:05.378Z,14.87
2018-06-23T05:43:05.349Z,15.01
2018-06-23T05:44:05.323Z,15.01
2018-06-23T05:45:05.384Z,15.10
2018-06-23T05:46:05.268Z,15.20
2018-06-23T05:47:05.243Z,14.97
2018-06-23T05:48:05.216Z,14.97
2018-06-23T05:49:05.186Z,14.97
2018-06-23T05:50:05.216Z,14.95
2018-06-23T05:51:05.133Z,14.93
2018-06-23T05:52:05.107Z,14.87
2018-06-23T05:53:05.080Z,14.89
2018-06-23T05:54:05.061Z,14.87
2018-06-23T05:55:05.095Z,14.71
2018-06-23T05:56:05.057Z,14.79
2018-06-23T05:57:04.979Z,14.75
2018-06-23T05:58:04.956Z,14.66
2018-06-23T05:59:04.924Z,14.67
2018-06-23T06:00:04.906Z,14.66
2018-06-23T06:01:04.915Z,14.59
2018-06-23T06:02:04.859Z,14.53
2018-06-23T06:03:04.824Z,14.57
2018-06-23T06:04:04.847Z,14.63
2018-06-23T06:05:04.767Z,14.60
2018-06-23T06:06:04.740Z,14.69
2018-06-23T06:07:04.796Z,14.67
2018-06-23T06:08:04.693Z,14.67
2018-06-23T06:09:04.663Z,14.74
2018-06-23T06:10:04.638Z,14.74
2018-06-23T06:11:04.608Z,14.87
2018-06-23T06:12:04.626Z,14.74
2018-06-23T06:13:04.565Z,14.70
2018-06-23T06:14:04.534Z,14.69
2018-06-23T06:15:04.505Z,14.59
2018-06-23T06:16:04.482Z,14.51
2018-06-23T06:17:04.510Z,14.46
2018-06-23T06:18:04.428Z,14.44
2018-06-23T06:19:04.401Z,14.28
2018-06-23T06:20:04.376Z,14.19
2018-06-23T06:21:04.345Z,14.19
2018-06-23T06:22:04.374Z,14.08
2018-06-23T06:23:04.339Z,14.12
2018-06-23T06:24:04.265Z,14.05
2018-06-23T06:25:04.244Z,14.09
2018-06-23T06:26:04.211Z,14.19
2018-06-23T06:27:04.186Z,14.20
2018-06-23T06:28:04.206Z,14.12
2018-06-23T06:29:04.132Z,14.12
2018-06-23T06:30:04.107Z,14.13
2018-06-23T06:31:04.091Z,14.13
2018-06-23T06:32:04.053Z,14.02
2018-06-23T06:33:04.081Z,14.01
2018-06-23T06:34:04.005Z,13.94
2018-06-23T06:35:03.970Z,14.02
2018-06-23T06:36:03.943Z,14.03
2018-06-23T06:37:03.935Z,13.94
2018-06-23T06:38:03.938Z,13.88
2018-06-23T06:39:03.861Z,13.91
2018-06-23T06:40:03.843Z,13.81
2018-06-23T06:41:03.850Z,13.66
2018-06-23T06:42:03.782Z,13.69
2018-06-23T06:43:03.767Z,13.72
2018-06-23T06:44:03.775Z,13.68
2018-06-23T06:45:03.702Z,13.73
2018-06-23T06:46:03.686Z,13.70
2018-06-23T06:47:03.655Z,13.75
2018-06-23T06:48:03.622Z,13.70
2018-06-23T06:49:03.640Z,13.73
2018-06-23T06:50:03.568Z,13.86
2018-06-23T06:51:03.537Z,13.81
2018-06-23T06:52:03.518Z,13.83
2018-06-23T06:53:03.532Z,13.90
2018-06-23T06:54:03.459Z,13.95
2018-06-23T06:55:03.438Z,13.81
2018-06-23T06:56:03.402Z,13.99
2018-06-23T06:57:03.407Z,14.01
2018-06-23T06:58:03.399Z,14.02
2018-06-23T06:59:03.320Z,14.08
2018-06-23T07:00:03.340Z,14.23
2018-06-23T07:01:03.270Z,14.19
2018-06-23T07:02:03.241Z,14.15
2018-06-23T07:03:03.227Z,14.11
2018-06-23T07:04:03.188Z,14.21
2018-06-23T07:05:03.215Z,14.11
2018-06-23T07:06:03.129Z,14.16
2018-06-23T07:07:03.108Z,14.39
2018-06-23T07:08:03.078Z,14.34
2018-06-23T07:09:03.054Z,14.45
2018-06-23T07:10:03.084Z,14.53
2018-06-23T07:11:03.005Z,14.70
2018-06-23T07:12:02.971Z,14.83
2018-06-23T07:13:02.950Z,14.79
2018-06-23T07:14:02.919Z,14.74
2018-06-23T07:15:02.957Z,14.85
2018-06-23T07:16:02.869Z,14.93
2018-06-23T07:17:02.842Z,14.94
2018-06-23T07:18:02.817Z,14.82
2018-06-23T07:19:02.790Z,14.95
2018-06-23T07:20:02.864Z,14.86
2018-06-23T07:21:02.736Z,14.70
2018-06-23T07:22:02.713Z,14.79
2018-06-23T07:23:02.683Z,14.75
2018-06-23T07:24:02.706Z,14.69
2018-06-23T07:25:02.680Z,14.74
2018-06-23T07:26:03.191Z,14.69
2018-06-23T07:27:02.627Z,14.71
2018-06-23T07:28:02.558Z,14.70
2018-06-23T07:29:02.527Z,14.86
2018-06-23T07:30:02.509Z,14.75
2018-06-23T07:31:02.481Z,14.74
2018-06-23T07:32:02.506Z,14.82
2018-06-23T07:33:02.423Z,14.85
2018-06-23T07:34:02.397Z,14.83
2018-06-23T07:35:02.448Z,14.85
2018-06-23T07:36:02.391Z,14.85
2018-06-23T07:37:02.318Z,14.90
2018-06-23T07:38:02.344Z,14.95
2018-06-23T07:39:02.270Z,15.00
2018-06-23T07:40:02.245Z,15.00
2018-06-23T07:41:02.214Z,14.98
2018-06-23T07:42:02.205Z,15.05
2018-06-23T07:43:02.212Z,14.93
2018-06-23T07:44:02.140Z,14.97
2018-06-23T07:45:02.112Z,14.95
2018-06-23T07:46:02.084Z,14.94
2018-06-23T07:47:02.059Z,14.83
2018-06-23T07:48:02.093Z,14.75
2018-06-23T07:49:02.008Z,14.89
2018-06-23T07:50:01.988Z,14.97
2018-06-23T07:51:01.955Z,15.07
2018-06-23T07:52:01.934Z,15.02
2018-06-23T07:53:01.950Z,15.08
2018-06-23T07:54:01.923Z,15.05
2018-06-23T07:55:01.854Z,15.16
2018-06-23T07:56:01.870Z,15.20
2018-06-23T07:57:01.847Z,15.25
2018-06-23T07:58:01.795Z,15.30
2018-06-23T07:59:01.757Z,15.37
2018-06-23T08:00:01.775Z,15.41
2018-06-23T08:01:01.706Z,15.63
2018-06-23T08:02:01.719Z,15.81
2018-06-23T08:03:01.652Z,15.84
2018-06-23T08:04:01.630Z,16.00
2018-06-23T08:05:01.612Z,16.00
2018-06-23T08:06:01.577Z,15.98
2018-06-23T08:07:01.603Z,15.91
2018-06-23T08:08:01.532Z,15.89
2018-06-23T08:09:01.504Z,15.88
2018-06-23T08:10:01.474Z,15.84
2018-06-23T08:11:01.455Z,15.81
2018-06-23T08:12:01.469Z,15.84
2018-06-23T08:13:01.445Z,15.86
2018-06-23T08:14:01.429Z,15.86
2018-06-23T08:15:01.352Z,15.93
2018-06-23T08:16:01.341Z,15.84
2018-06-23T08:17:01.303Z,15.98
2018-06-23T08:18:01.296Z,16.22
2018-06-23T08:19:01.310Z,16.14
2018-06-23T08:20:01.229Z,16.14
2018-06-23T08:21:01.215Z,16.02
2018-06-23T08:22:01.179Z,15.86
2018-06-23T08:23:01.155Z,15.70
2018-06-23T08:24:01.172Z,15.73
2018-06-23T08:25:01.156Z,16.06
2018-06-23T08:26:01.084Z,16.32
2018-06-23T08:27:01.061Z,16.27
2018-06-23T08:28:01.076Z,16.22
2018-06-23T08:29:01.011Z,15.93
2018-06-23T08:30:01.029Z,15.95
2018-06-23T08:31:00.965Z,16.07
2018-06-23T08:32:01.080Z,16.16
2018-06-23T08:33:00.913Z,16.17
2018-06-23T08:34:00.891Z,16.48
2018-06-23T08:35:00.862Z,16.48
2018-06-23T08:36:00.858Z,16.33
2018-06-23T08:37:00.864Z,16.29
2018-06-23T08:38:00.789Z,16.30
2018-06-23T08:39:00.772Z,16.49
2018-06-23T08:40:00.787Z,16.62
2018-06-23T08:41:00.718Z,16.81
2018-06-23T08:42:00.756Z,16.72
2018-06-23T08:43:00.670Z,16.73
2018-06-23T08:44:00.645Z,16.77
2018-06-23T08:45:00.663Z,16.84
2018-06-23T08:46:00.604Z,17.15
2018-06-23T08:47:00.575Z,17.27
2018-06-23T08:48:00.599Z,17.15
2018-06-23T08:49:00.534Z,17.32
2018-06-23T08:50:00.503Z,17.43
2018-06-23T08:51:00.527Z,17.52
2018-06-23T08:52:00.466Z,17.87
2018-06-23T08:53:00.434Z,17.94
2018-06-23T08:54:00.450Z,18.19
2018-06-23T08:55:00.387Z,18.16
2018-06-23T08:56:00.411Z,17.94
2018-06-23T08:57:00.453Z,17.86
2018-06-23T08:58:00.320Z,17.69
2018-06-23T08:59:00.303Z,17.57
2018-06-23T09:00:00.273Z,17.52
2018-06-23T09:01:00.304Z,17.47
2018-06-23T09:02:00.278Z,17.45
2018-06-23T09:03:00.226Z,17.43
2018-06-23T09:04:00.211Z,17.17
2018-06-23T09:05:00.162Z,17.20
2018-06-23T09:06:00.139Z,17.13
2018-06-23T09:07:00.158Z,17.10
2018-06-23T09:08:00.113Z,16.87
2018-06-23T09:09:00.072Z,16.70
2018-06-23T09:10:00.090Z,16.70
2018-06-23T09:11:00.032Z,16.69
2018-06-23T09:12:00.000Z,16.72
2018-06-23T09:12:59.976Z,16.69
2018-06-23T09:13:59.951Z,16.82
2018-06-23T09:14:59.967Z,16.81
2018-06-23T09:15:59.909Z,16.73
2018-06-23T09:16:59.878Z,16.72
2018-06-23T09:17:59.861Z,16.90
2018-06-23T09:18:59.879Z,17.06
2018-06-23T09:19:59.849Z,17.07
2018-06-23T09:20:59.834Z,17.06
2018-06-23T09:21:59.763Z,17.32
2018-06-23T09:22:59.785Z,17.38
2018-06-23T09:23:59.712Z,17.40
2018-06-23T09:24:59.688Z,17.43
2018-06-23T09:25:59.806Z,17.36
2018-06-23T09:26:59.695Z,17.35
2018-06-23T09:27:59.617Z,17.38
2018-06-23T09:28:59.595Z,17.42
2018-06-23T09:29:59.572Z,17.31
2018-06-23T09:30:59.552Z,17.07
2018-06-23T09:31:59.566Z,16.97
2018-06-23T09:32:59.550Z,17.02
2018-06-23T09:33:59.477Z,16.91
2018-06-23T09:34:59.455Z,17.06
2018-06-23T09:35:59.436Z,17.25
2018-06-23T09:36:59.407Z,17.32
2018-06-23T09:37:59.429Z,17.55
2018-06-23T09:38:59.422Z,17.57
2018-06-23T09:39:59.349Z,17.63
2018-06-23T09:40:59.317Z,17.69
2018-06-23T09:41:59.292Z,17.81
2018-06-23T09:42:59.275Z,17.86
2018-06-23T09:43:59.291Z,17.94
2018-06-23T09:44:59.228Z,18.06
2018-06-23T09:45:59.271Z,18.13
2018-06-23T09:46:59.178Z,18.06
2018-06-23T09:47:59.151Z,18.16
2018-06-23T09:48:59.193Z,18.23
2018-06-23T09:49:59.105Z,18.11
2018-06-23T09:50:59.086Z,18.20
2018-06-23T09:51:59.080Z,18.19
2018-06-23T09:52:59.098Z,17.84
2018-06-23T09:53:59.014Z,17.77
2018-06-23T09:54:58.993Z,17.47
2018-06-23T09:55:59.060Z,17.42
2018-06-23T09:56:58.945Z,17.36
2018-06-23T09:57:58.968Z,17.28
2018-06-23T09:58:58.971Z,17.49
2018-06-23T09:59:58.937Z,17.84
2018-06-23T10:00:58.855Z,17.81
2018-06-23T10:01:58.841Z,18.03
2018-06-23T10:02:58.808Z,18.06
2018-06-23T10:03:58.781Z,18.16
2018-06-23T10:04:58.829Z,18.14
2018-06-23T10:05:58.738Z,18.23
2018-06-23T10:06:58.727Z,18.59
2018-06-23T10:07:58.689Z,18.60
2018-06-23T10:08:58.688Z,18.71
2018-06-23T10:09:58.690Z,18.84
2018-06-23T10:10:58.619Z,18.60
2018-06-23T10:11:58.603Z,18.66
2018-06-23T10:12:58.576Z,18.78
2018-06-23T10:13:58.555Z,18.75
2018-06-23T10:14:58.574Z,18.66
2018-06-23T10:15:58.531Z,18.75
2018-06-23T10:16:58.488Z,18.87
2018-06-23T10:17:58.461Z,19.02
2018-06-23T10:18:58.452Z,18.99
2018-06-23T10:19:58.471Z,18.89
2018-06-23T10:20:58.452Z,18.76
2018-06-23T10:21:58.381Z,18.78
2018-06-23T10:22:58.349Z,18.84
2018-06-23T10:23:58.344Z,18.97
2018-06-23T10:24:58.305Z,19.05
2018-06-23T10:25:58.330Z,18.94
2018-06-23T10:26:58.308Z,18.75
2018-06-23T10:27:58.256Z,18.86
2018-06-23T10:28:58.223Z,18.94
2018-06-23T10:29:58.194Z,18.99
2018-06-23T10:30:58.175Z,18.94
2018-06-23T10:31:58.199Z,19.07
2018-06-23T10:32:58.187Z,19.00
2018-06-23T10:33:58.113Z,19.00
2018-06-23T10:34:58.082Z,18.97
2018-06-23T10:35:58.064Z,18.79
2018-06-23T10:36:58.052Z,18.72
2018-06-23T10:37:58.062Z,18.81
2018-06-23T10:38:57.996Z,18.79
2018-06-23T10:39:57.975Z,18.78
2018-06-23T10:40:58.024Z,18.90
2018-06-23T10:42:02.763Z,19.02
2018-06-23T10:42:57.947Z,18.97
2018-06-23T10:43:57.947Z,18.96
2018-06-23T10:44:57.866Z,18.91
2018-06-23T10:45:57.839Z,18.81
2018-06-23T10:46:57.881Z,18.50
2018-06-23T10:47:57.798Z,18.36
2018-06-23T10:48:57.815Z,18.19
2018-06-23T10:49:57.748Z,18.24
2018-06-23T10:50:57.726Z,18.20
2018-06-23T10:51:57.703Z,18.20
2018-06-23T10:52:57.724Z,18.23
2018-06-23T10:53:57.653Z,18.36
2018-06-23T10:54:57.679Z,18.34
2018-06-23T10:55:57.612Z,18.39
2018-06-23T10:56:57.595Z,18.54
2018-06-23T10:57:57.562Z,18.78
2018-06-23T10:58:57.551Z,19.05
2018-06-23T10:59:57.569Z,19.09
2018-06-23T11:00:57.496Z,19.17
2018-06-23T11:01:57.517Z,19.27
2018-06-23T11:02:57.494Z,19.27
2018-06-23T11:03:57.427Z,19.38
2018-06-23T11:04:57.590Z,19.34
2018-06-23T11:05:57.382Z,19.43
2018-06-23T11:06:57.358Z,19.43
2018-06-23T11:07:57.387Z,19.16
2018-06-23T11:08:57.316Z,19.05
2018-06-23T11:09:57.336Z,19.17
2018-06-23T11:10:57.271Z,19.00
2018-06-23T11:11:57.246Z,18.94
2018-06-23T11:12:57.233Z,18.96
2018-06-23T11:13:57.203Z,18.94
2018-06-23T11:14:57.221Z,18.81
2018-06-23T11:15:57.220Z,18.79
2018-06-23T11:16:57.138Z,18.87
2018-06-23T11:17:57.109Z,18.53
2018-06-23T11:18:57.086Z,18.39
2018-06-23T11:19:57.403Z,18.57
2018-06-23T11:20:57.193Z,18.51
2018-06-23T11:21:57.023Z,18.50
2018-06-23T11:22:57.000Z,18.38
2018-06-23T11:23:56.974Z,18.36
2018-06-23T11:24:56.960Z,18.51
2018-06-23T11:25:56.973Z,18.63
2018-06-23T11:26:56.953Z,18.60
2018-06-23T11:27:56.883Z,18.71
2018-06-23T11:28:56.861Z,18.79
2018-06-23T11:29:56.861Z,18.63
2018-06-23T11:30:56.816Z,18.36
2018-06-23T11:31:56.896Z,18.59
2018-06-23T11:32:56.774Z,18.61
2018-06-23T11:33:56.763Z,18.63
2018-06-23T11:34:56.724Z,18.81
2018-06-23T11:35:56.702Z,18.78
2018-06-23T11:36:56.724Z,18.72
2018-06-23T11:37:56.658Z,18.79
2018-06-23T11:38:56.679Z,18.82
2018-06-23T11:39:56.620Z,18.82
2018-06-23T11:40:56.592Z,18.81
2018-06-23T11:41:56.566Z,18.69
2018-06-23T11:42:56.547Z,18.49
2018-06-23T11:43:56.565Z,18.39
2018-06-23T11:44:56.500Z,18.38
2018-06-23T11:45:56.477Z,18.39
2018-06-23T11:46:56.457Z,18.61
2018-06-23T11:47:56.477Z,18.79
2018-06-23T11:48:56.411Z,18.96
2018-06-23T11:49:56.387Z,19.28
2018-06-23T11:50:56.371Z,19.28
2018-06-23T11:51:56.339Z,19.37
2018-06-23T11:52:56.379Z,19.53
2018-06-23T11:53:56.302Z,19.60
2018-06-23T11:54:56.287Z,19.60
2018-06-23T11:55:56.253Z,19.50
2018-06-23T11:56:56.228Z,19.31
2018-06-23T11:57:56.257Z,19.00
2018-06-23T11:58:56.186Z,18.81
2018-06-23T11:59:56.173Z,18.82
2018-06-23T12:00:56.190Z,18.79
2018-06-23T12:01:56.223Z,18.81
2018-06-23T12:02:56.098Z,18.86
2018-06-23T12:03:56.074Z,18.78
2018-06-23T12:04:56.066Z,18.74
2018-06-23T12:05:56.067Z,18.76
2018-06-23T12:06:56.012Z,18.86
2018-06-23T12:07:55.985Z,18.65
2018-06-23T12:08:56.027Z,18.51
2018-06-23T12:09:55.939Z,18.32
2018-06-23T12:10:55.918Z,18.23
2018-06-23T12:11:55.905Z,18.21
2018-06-23T12:12:55.873Z,18.27
2018-06-23T12:13:55.885Z,18.35
2018-06-23T12:14:55.826Z,18.41
2018-06-23T12:15:55.803Z,18.26
2018-06-23T12:16:55.835Z,18.31
2018-06-23T12:17:55.762Z,18.31
2018-06-23T12:18:55.745Z,18.36
2018-06-23T12:19:55.754Z,18.32
2018-06-23T12:20:55.700Z,18.44
2018-06-23T12:21:55.662Z,18.53
2018-06-23T12:22:55.660Z,18.44
2018-06-23T12:23:55.674Z,18.60
2018-06-23T12:24:55.595Z,18.74
2018-06-23T12:25:55.609Z,18.78
2018-06-23T12:26:55.550Z,18.97
2018-06-23T12:27:55.529Z,18.87
2018-06-23T12:28:55.548Z,18.86
2018-06-23T12:29:55.480Z,18.66
2018-06-23T12:30:55.460Z,18.32
2018-06-23T12:31:55.435Z,18.02
2018-06-23T12:32:55.426Z,17.77
2018-06-23T12:33:55.443Z,17.83
2018-06-23T12:34:55.418Z,17.68
2018-06-23T12:35:55.367Z,17.68
2018-06-23T12:36:55.319Z,17.66
2018-06-23T12:37:55.359Z,17.55
2018-06-23T12:38:55.276Z,17.28
2018-06-23T12:39:55.293Z,17.05
2018-06-23T12:40:55.282Z,16.88
2018-06-23T12:41:55.208Z,16.90
2018-06-23T12:42:55.186Z,16.73
2018-06-23T12:43:55.157Z,16.76
2018-06-23T12:44:55.134Z,16.74
2018-06-23T12:45:55.152Z,16.81
2018-06-23T12:46:55.082Z,16.87
2018-06-23T12:47:55.064Z,16.87
2018-06-23T12:48:55.051Z,16.95
2018-06-23T12:49:55.058Z,16.91
2018-06-23T12:50:54.987Z,17.15
2018-06-23T12:51:55.770Z,17.36